Terminal Aerodrome Forecast
Issued by NWS

Home | Current Version | Previous Version | Text Only | Print | Product List | Glossary Off
Versions: 1 2 3 4 5 6 7 8 9 10 11 12 13 14 15 16 17

171
FTUS43 KFGF 170538
TAFBJI
TAF
KBJI 170538Z 1706/1806 00000KT 6SM BR SKC
     FM170800 00000KT 2SM BR SKC
     FM171600 VRB03KT P6SM FEW200
     FM172100 20007KT P6SM SCT200=

USA.gov is the U.S. government's official web portal to all federal, state and local government web resources and services.